Time;durP1;ratioP1;P1;durP2;ratioP2;P2;SDS_P1;SDS_P2;PMS_P1;PMS_P2;Temp;Humidity;BMP_temperature;BMP_pressure;BME280_temperature;BME280_humidity;BME280_pressure;Samples;Min_cycle;Max_cycle;Signal;HPM_P1;HPM_P2
2022/01/05 00:01:24;;;;;;;0.30;0.20;;;;;;;8.56;100.00;98525.03;5051565;28;20450;-54
2022/01/05 00:03:51;;;;;;;0.30;0.20;;;;;;;8.45;100.00;98530.84;5053063;28;20457;-54
2022/01/05 00:06:18;;;;;;;0.30;0.20;;;;;;;8.47;100.00;98525.47;5053266;28;20478;-54
2022/01/05 00:08:45;;;;;;;0.30;0.20;;;;;;;8.28;100.00;98507.81;5044478;28;20541;-53
2022/01/05 00:11:12;;;;;;;0.30;0.20;;;;;;;8.20;100.00;98503.81;5005813;28;21067;-53
2022/01/05 00:13:43;;;;;;;0.30;0.20;;;;;;;8.20;100.00;98507.31;5015467;28;20452;-54
2022/01/05 00:16:10;;;;;;;0.30;0.20;;;;;;;8.14;100.00;98502.31;4996363;28;20839;-54
2022/01/05 00:18:36;;;;;;;0.30;0.20;;;;;;;8.13;100.00;98503.25;5019935;28;20472;-54
2022/01/05 00:21:04;;;;;;;0.30;0.20;;;;;;;8.12;100.00;98495.41;5033092;28;20451;-54
2022/01/05 00:23:31;;;;;;;0.30;0.20;;;;;;;8.11;100.00;98491.03;5027437;28;20441;-55
2022/01/05 00:26:01;;;;;;;0.30;0.20;;;;;;;8.26;100.00;98493.81;5020485;28;20509;-55
2022/01/05 00:28:27;;;;;;;0.30;0.20;;;;;;;8.71;100.00;98491.66;5028654;28;20495;-54
2022/01/05 00:30:54;;;;;;;0.30;0.20;;;;;;;8.36;100.00;98496.00;5032651;28;20995;-54
2022/01/05 00:33:20;;;;;;;0.30;0.20;;;;;;;8.19;100.00;98497.66;5029754;28;20480;-54
2022/01/05 00:35:47;;;;;;;0.30;0.20;;;;;;;8.11;100.00;98498.97;5032621;28;20455;-53
2022/01/05 00:38:14;;;;;;;0.30;0.20;;;;;;;8.07;100.00;98505.31;5031101;28;20585;-54
2022/01/05 00:40:40;;;;;;;0.30;0.20;;;;;;;8.05;100.00;98493.97;5032596;28;20861;-54
2022/01/05 00:43:07;;;;;;;0.30;0.20;;;;;;;8.06;100.00;98496.53;5030930;28;20444;-54
2022/01/05 00:45:33;;;;;;;0.30;0.20;;;;;;;8.16;100.00;98492.53;5020909;28;20875;-54
2022/01/05 00:48:00;;;;;;;0.30;0.20;;;;;;;8.01;100.00;98487.97;5032141;28;20502;-54
2022/01/05 00:50:27;;;;;;;0.30;0.20;;;;;;;8.18;100.00;98480.06;5020739;28;20505;-53
2022/01/05 00:53:00;;;;;;;0.30;0.20;;;;;;;8.06;100.00;98478.00;5032374;28;20505;-54
2022/01/05 00:55:30;;;;;;;0.30;0.20;;;;;;;8.29;100.00;98468.97;5021726;28;20479;-54
2022/01/05 00:57:56;;;;;;;0.30;0.20;;;;;;;8.16;100.00;98478.44;5032046;28;20455;-54
2022/01/05 01:00:23;;;;;;;0.30;0.20;;;;;;;8.10;100.00;98462.88;5023190;28;20479;-54
2022/01/05 01:02:49;;;;;;;0.30;0.20;;;;;;;8.22;100.00;98463.13;5032157;28;20459;-54
2022/01/05 01:05:17;;;;;;;0.30;0.20;;;;;;;8.27;100.00;98470.84;5024517;28;20452;-54
2022/01/05 01:07:45;;;;;;;0.30;0.20;;;;;;;8.26;100.00;98469.13;5018790;28;20493;-54
2022/01/05 01:10:12;;;;;;;0.30;0.20;;;;;;;8.28;100.00;98472.53;5023935;28;20444;-54
2022/01/05 01:12:39;;;;;;;0.30;0.20;;;;;;;8.33;100.00;98481.09;5017478;28;20545;-54
2022/01/05 01:15:08;;;;;;;0.30;0.20;;;;;;;8.45;100.00;98487.63;5027688;28;20447;-54
2022/01/05 01:17:35;;;;;;;0.30;0.20;;;;;;;8.34;100.00;98485.50;5022767;28;20470;-54
2022/01/05 01:20:03;;;;;;;0.30;0.20;;;;;;;8.11;100.00;98499.81;5028767;28;20876;-53
2022/01/05 01:22:31;;;;;;;0.30;0.20;;;;;;;8.14;100.00;98507.63;5031894;28;20514;-54
2022/01/05 01:24:59;;;;;;;0.30;0.20;;;;;;;8.02;100.00;98513.47;5018977;28;20445;-54
2022/01/05 01:27:26;;;;;;;0.30;0.20;;;;;;;8.05;100.00;98523.06;5031684;28;20799;-54
2022/01/05 01:29:53;;;;;;;0.30;0.20;;;;;;;8.08;100.00;98529.06;5031422;28;20467;-54
2022/01/05 01:32:19;;;;;;;0.30;0.20;;;;;;;8.05;100.00;98517.75;5031848;28;20519;-54
2022/01/05 01:34:46;;;;;;;0.30;0.20;;;;;;;7.95;100.00;98507.63;5019617;28;20453;-55
2022/01/05 01:37:13;;;;;;;0.30;0.20;;;;;;;7.98;100.00;98494.25;5031820;28;20451;-54
2022/01/05 01:39:40;;;;;;;0.30;0.20;;;;;;;8.05;100.00;98505.41;5020583;28;21047;-55
2022/01/05 01:42:07;;;;;;;0.30;0.20;;;;;;;7.97;100.00;98508.41;5032019;28;20497;-54
2022/01/05 01:44:33;;;;;;;0.30;0.20;;;;;;;8.13;100.00;98511.19;5021764;28;20906;-54
2022/01/05 01:47:00;;;;;;;0.30;0.20;;;;;;;8.24;100.00;98506.25;5032060;28;20447;-54
2022/01/05 01:49:27;;;;;;;0.30;0.20;;;;;;;8.07;100.00;98518.53;5022870;28;20467;-56
2022/01/05 01:51:54;;;;;;;0.30;0.20;;;;;;;8.21;100.00;98516.09;5020531;28;20515;-54
2022/01/05 01:54:21;;;;;;;0.30;0.20;;;;;;;7.99;100.00;98516.28;5018945;28;20855;-54
2022/01/05 01:56:48;;;;;;;0.30;0.20;;;;;;;8.03;100.00;98546.94;5034157;28;20501;-54
2022/01/05 01:59:15;;;;;;;0.30;0.20;;;;;;;7.69;100.00;98616.41;5035483;28;20525;-54
2022/01/05 02:01:42;;;;;;;0.30;0.20;;;;;;;6.55;100.00;98629.94;5035473;28;20440;-53
2022/01/05 02:04:09;;;;;;;0.30;0.20;;;;;;;6.07;100.00;98653.78;5035518;28;20830;-54
2022/01/05 02:06:35;;;;;;;0.30;0.20;;;;;;;5.48;100.00;98668.13;5035400;28;20827;-54
2022/01/05 02:09:04;;;;;;;0.30;0.20;;;;;;;5.13;100.00;98673.72;5035255;28;20471;-53
2022/01/05 02:11:32;;;;;;;0.30;0.20;;;;;;;5.01;100.00;98665.28;5022802;28;20487;-53
2022/01/05 02:13:58;;;;;;;0.30;0.20;;;;;;;4.98;100.00;98668.03;5031071;28;20447;-53
2022/01/05 02:16:30;;;;;;;0.30;0.20;;;;;;;5.06;100.00;98676.53;5030330;28;20453;-53
2022/01/05 02:18:58;;;;;;;0.30;0.20;;;;;;;5.02;100.00;98682.81;5014672;28;20787;-53
2022/01/05 02:21:36;;;;;;;0.30;0.20;;;;;;;5.06;100.00;98699.38;5035352;28;20501;-53
2022/01/05 02:24:04;;;;;;;0.30;0.20;;;;;;;5.04;100.00;98709.94;5031496;28;20440;-53
2022/01/05 02:26:31;;;;;;;0.30;0.20;;;;;;;5.04;100.00;98717.84;5027783;28;20451;-53
2022/01/05 02:28:58;;;;;;;0.30;0.17;;;;;;;5.00;100.00;98723.28;5034745;28;20471;-53
2022/01/05 02:31:24;;;;;;;0.27;0.10;;;;;;;5.00;100.00;98726.75;5035122;28;20490;-53
2022/01/05 02:33:51;;;;;;;0.30;0.20;;;;;;;5.09;100.00;98732.66;5035002;28;20467;-53
2022/01/05 02:36:20;;;;;;;0.30;0.20;;;;;;;5.01;100.00;98717.09;5035115;28;20505;-53
2022/01/05 02:38:49;;;;;;;0.20;0.20;;;;;;;5.18;100.00;98725.31;5028700;28;20534;-53
2022/01/05 02:41:16;;;;;;;0.20;0.10;;;;;;;5.23;100.00;98738.34;5028164;28;20502;-53
2022/01/05 02:43:44;;;;;;;0.30;0.10;;;;;;;5.21;100.00;98727.00;5034618;28;20509;-54
2022/01/05 02:46:20;;;;;;;0.20;0.20;;;;;;;5.08;100.00;98744.97;5034792;28;20463;-53
2022/01/05 02:48:49;;;;;;;0.20;0.10;;;;;;;5.32;100.00;98743.31;5034636;28;20494;-53
2022/01/05 02:51:16;;;;;;;0.30;0.20;;;;;;;5.24;100.00;98729.53;5034490;28;20523;-53
2022/01/05 02:53:43;;;;;;;0.20;0.20;;;;;;;5.35;100.00;98748.50;5033527;28;20509;-53
2022/01/05 02:56:10;;;;;;;0.20;0.10;;;;;;;5.26;100.00;98754.06;5030926;28;20862;-54
2022/01/05 02:58:37;;;;;;;0.20;0.10;;;;;;;5.42;100.00;98770.22;5034533;28;20499;-53
2022/01/05 03:01:04;;;;;;;0.20;0.20;;;;;;;5.25;100.00;98783.94;5034492;28;20509;-53
2022/01/05 03:03:31;;;;;;;0.20;0.20;;;;;;;5.21;100.00;98769.16;5034380;28;20940;-54
2022/01/05 03:05:58;;;;;;;0.30;0.20;;;;;;;5.29;100.00;98782.91;5034356;28;20513;-53
2022/01/05 03:08:25;;;;;;;0.20;0.10;;;;;;;5.35;100.00;98785.38;5034094;28;20880;-54
2022/01/05 03:10:51;;;;;;;0.20;0.10;;;;;;;5.30;100.00;98797.81;5018273;28;20491;-53
2022/01/05 03:13:19;;;;;;;0.20;0.20;;;;;;;5.15;100.00;98800.94;5025085;28;20459;-53
2022/01/05 03:15:46;;;;;;;0.20;0.20;;;;;;;5.13;100.00;98800.97;5034197;28;20451;-53
2022/01/05 03:18:12;;;;;;;0.20;0.10;;;;;;;5.13;100.00;98805.38;5025424;28;20471;-53
2022/01/05 03:20:39;;;;;;;0.20;0.10;;;;;;;5.11;100.00;98808.06;5033955;28;20452;-54
2022/01/05 03:23:06;;;;;;;0.20;0.20;;;;;;;5.27;100.00;98811.09;5034012;28;20451;-53
2022/01/05 03:25:33;;;;;;;0.20;0.20;;;;;;;5.39;100.00;98815.97;5021921;28;20809;-54
2022/01/05 03:28:00;;;;;;;0.20;0.10;;;;;;;5.47;100.00;98832.38;5033875;28;20506;-53
2022/01/05 03:30:29;;;;;;;0.20;0.10;;;;;;;5.23;100.00;98838.44;5033969;28;20521;-53
2022/01/05 03:35:31;;;;;;;0.20;0.10;;;;;;;5.38;100.00;98845.88;5033714;28;20444;-54
2022/01/05 03:37:59;;;;;;;0.20;0.17;;;;;;;5.56;100.00;98853.19;5033634;28;20498;-53
2022/01/05 03:40:27;;;;;;;0.20;0.20;;;;;;;5.42;100.00;98867.72;5033910;28;20451;-53
2022/01/05 03:42:53;;;;;;;0.20;0.20;;;;;;;5.47;100.00;98868.41;5033892;28;20470;-53
2022/01/05 03:45:20;;;;;;;0.20;0.10;;;;;;;5.73;100.00;98872.88;5007760;28;20460;-53
2022/01/05 03:47:47;;;;;;;0.20;0.17;;;;;;;5.74;100.00;98869.31;5033479;28;20526;-53
2022/01/05 03:50:14;;;;;;;0.23;0.20;;;;;;;5.75;100.00;98866.63;5033470;28;20951;-53
2022/01/05 03:52:40;;;;;;;0.20;0.20;;;;;;;5.86;100.00;98874.22;5033538;28;20542;-54
2022/01/05 03:55:07;;;;;;;0.30;0.10;;;;;;;5.71;100.00;98877.34;5028066;28;20482;-53
2022/01/05 03:57:34;;;;;;;0.20;0.10;;;;;;;5.65;100.00;98886.31;5033741;28;20459;-54
2022/01/05 04:00:01;;;;;;;0.20;0.20;;;;;;;5.67;100.00;98896.81;5033261;28;20506;-53
2022/01/05 04:02:29;;;;;;;0.20;0.20;;;;;;;5.58;100.00;98908.47;5033192;28;20444;-53
2022/01/05 04:04:56;;;;;;;0.30;0.20;;;;;;;5.63;100.00;98917.13;5033781;28;20474;-53
2022/01/05 04:07:22;;;;;;;0.20;0.20;;;;;;;5.44;100.00;98937.88;5033279;28;20443;-53
2022/01/05 04:09:49;;;;;;;0.30;0.10;;;;;;;5.26;100.00;98933.16;5033311;28;20514;-53
2022/01/05 04:12:15;;;;;;;0.30;0.20;;;;;;;5.31;100.00;98939.16;5015805;28;21005;-54
2022/01/05 04:14:42;;;;;;;0.20;0.10;;;;;;;5.46;100.00;98929.94;5033090;28;20506;-54
2022/01/05 04:17:09;;;;;;;0.30;0.20;;;;;;;5.36;100.00;98942.53;5023791;28;20459;-53
2022/01/05 04:19:36;;;;;;;0.30;0.20;;;;;;;5.28;100.00;98945.38;5032244;28;20482;-53
2022/01/05 04:22:04;;;;;;;0.30;0.20;;;;;;;5.21;100.00;98961.44;5032871;28;20944;-53
2022/01/05 04:24:30;;;;;;;0.30;0.20;;;;;;;5.44;100.00;98956.34;5025320;28;20499;-54
2022/01/05 04:26:57;;;;;;;0.30;0.20;;;;;;;5.35;100.00;98956.63;5029031;28;20451;-53
2022/01/05 04:29:23;;;;;;;0.30;0.20;;;;;;;5.21;100.00;98964.06;5033011;28;20472;-54
2022/01/05 04:31:50;;;;;;;0.30;0.20;;;;;;;5.17;100.00;98962.41;5032648;28;21005;-53
2022/01/05 04:34:18;;;;;;;0.30;0.20;;;;;;;5.27;100.00;98967.38;5033160;28;20455;-53
2022/01/05 04:37:06;;;;;;;0.30;0.20;;;;;;;5.39;100.00;98965.28;5032746;28;20532;-54
2022/01/05 04:39:34;;;;;;;0.30;0.20;;;;;;;5.28;100.00;98989.31;5032654;28;20881;-53
2022/01/05 04:42:02;;;;;;;0.30;0.20;;;;;;;5.53;100.00;98982.44;5032532;28;20509;-53
2022/01/05 04:44:29;;;;;;;0.30;0.10;;;;;;;5.37;100.00;98985.56;5032439;28;20452;-54
2022/01/05 04:46:56;;;;;;;0.30;0.20;;;;;;;5.32;100.00;99007.59;5032849;28;20443;-53
2022/01/05 04:49:23;;;;;;;0.30;0.20;;;;;;;5.33;100.00;99013.75;5032315;28;20901;-54
2022/01/05 04:51:51;;;;;;;0.30;0.20;;;;;;;5.35;100.00;99006.69;5025610;28;21013;-53
2022/01/05 04:54:18;;;;;;;0.20;0.20;;;;;;;5.52;100.00;99020.22;5021110;28;20448;-53
2022/01/05 04:56:44;;;;;;;0.23;0.17;;;;;;;5.27;100.00;99027.09;5032397;28;20510;-53
2022/01/05 04:59:11;;;;;;;0.30;0.20;;;;;;;5.30;100.00;99029.63;5032200;28;20479;-53
2022/01/05 05:01:38;;;;;;;0.30;0.20;;;;;;;5.27;100.00;99025.31;5032470;28;20487;-54
2022/01/05 05:04:05;;;;;;;0.30;0.10;;;;;;;5.26;100.00;99038.53;5032401;28;20732;-53
2022/01/05 05:06:31;;;;;;;0.20;0.10;;;;;;;5.28;100.00;99034.09;5032631;28;20448;-53
2022/01/05 05:08:58;;;;;;;0.20;0.20;;;;;;;5.06;100.00;99036.44;5032291;28;20526;-53
2022/01/05 05:11:25;;;;;;;0.27;0.10;;;;;;;5.28;100.00;99037.59;5020283;28;20440;-53
2022/01/05 05:13:51;;;;;;;0.30;0.20;;;;;;;5.39;100.00;99045.19;5026992;28;20491;-53
2022/01/05 05:16:18;;;;;;;0.20;0.10;;;;;;;5.23;100.00;99043.91;5028501;28;20480;-53
2022/01/05 05:18:45;;;;;;;0.30;0.20;;;;;;;5.07;100.00;99056.59;5027144;28;20483;-53
2022/01/05 05:21:11;;;;;;;0.23;0.17;;;;;;;5.19;99.38;99058.03;5032325;28;20451;-53
2022/01/05 05:23:38;;;;;;;0.20;0.10;;;;;;;5.06;97.26;99063.63;5031621;28;20451;-52
2022/01/05 05:26:05;;;;;;;0.30;0.20;;;;;;;5.12;97.75;99078.41;5020928;28;20456;-53
2022/01/05 05:28:31;;;;;;;0.20;0.10;;;;;;;4.95;98.70;99072.72;5031891;28;20501;-53
2022/01/05 05:30:58;;;;;;;0.23;0.20;;;;;;;5.02;98.40;99072.50;5035174;28;20455;-53
2022/01/05 05:33:28;;;;;;;0.20;0.20;;;;;;;4.94;99.61;99078.91;5036146;28;20586;-52
2022/01/05 05:35:55;;;;;;;0.30;0.20;;;;;;;4.90;99.35;99083.34;5036131;28;20940;-52
2022/01/05 05:38:22;;;;;;;0.30;0.20;;;;;;;4.92;100.00;99086.81;5018291;28;20467;-52
2022/01/05 05:40:48;;;;;;;0.20;0.20;;;;;;;4.80;100.00;99086.25;5036092;28;20578;-52
2022/01/05 05:43:15;;;;;;;0.27;0.20;;;;;;;4.80;100.00;99087.16;5035743;28;20498;-52
2022/01/05 05:45:42;;;;;;;0.30;0.20;;;;;;;4.77;100.00;99092.47;5035822;28;20455;-52
2022/01/05 05:48:09;;;;;;;0.20;0.20;;;;;;;4.62;100.00;99093.69;5035788;28;20507;-55
2022/01/05 05:50:35;;;;;;;0.20;0.17;;;;;;;4.69;99.82;99104.97;5035690;28;20487;-53
2022/01/05 05:53:02;;;;;;;0.20;0.20;;;;;;;4.83;99.72;99108.13;5035493;28;20522;-52
2022/01/05 05:55:29;;;;;;;0.20;0.20;;;;;;;4.49;99.62;99115.94;5030182;28;20783;-53
2022/01/05 05:57:57;;;;;;;0.20;0.20;;;;;;;4.50;98.99;99130.81;5036308;28;20529;-53
2022/01/05 06:00:23;;;;;;;0.30;0.20;;;;;;;4.41;97.92;99137.19;5035813;28;20444;-52
2022/01/05 06:02:50;;;;;;;0.20;0.10;;;;;;;4.41;97.63;99137.19;5035458;28;20814;-51
2022/01/05 06:05:17;;;;;;;0.20;0.10;;;;;;;4.49;98.19;99138.75;5035618;28;20448;-52
2022/01/05 06:07:44;;;;;;;0.20;0.20;;;;;;;4.37;95.29;99140.75;5035085;28;20448;-51
2022/01/05 06:10:10;;;;;;;0.20;0.20;;;;;;;4.17;94.56;99140.34;5033562;28;20933;-51
2022/01/05 06:12:37;;;;;;;0.30;0.20;;;;;;;4.19;95.90;99145.56;5020001;28;20537;-52
2022/01/05 06:15:04;;;;;;;0.30;0.10;;;;;;;4.17;96.46;99156.13;5035102;28;20455;-51
2022/01/05 06:17:31;;;;;;;0.20;0.20;;;;;;;4.11;94.52;99154.50;5026193;28;20478;-52
2022/01/05 06:19:58;;;;;;;0.20;0.10;;;;;;;4.12;95.43;99160.63;5035067;28;20529;-52
2022/01/05 06:22:25;;;;;;;0.20;0.10;;;;;;;3.86;95.32;99164.63;5034850;28;20447;-51
2022/01/05 06:24:52;;;;;;;0.20;0.20;;;;;;;3.92;95.70;99174.16;5024738;28;20459;-51
2022/01/05 06:27:18;;;;;;;0.20;0.20;;;;;;;3.94;95.72;99172.34;5034254;28;20517;-51
2022/01/05 06:29:45;;;;;;;0.30;0.20;;;;;;;4.00;95.65;99180.13;5034844;28;20988;-51
2022/01/05 06:32:12;;;;;;;0.20;0.10;;;;;;;3.95;96.44;99188.97;5034728;28;20537;-51
2022/01/05 06:34:38;;;;;;;0.30;0.20;;;;;;;4.01;96.82;99197.63;5034924;28;20452;-51
2022/01/05 06:37:05;;;;;;;0.20;0.10;;;;;;;3.91;98.02;99197.84;5034469;28;21005;-52
2022/01/05 06:39:32;;;;;;;0.20;0.10;;;;;;;4.12;96.79;99198.28;5034852;28;20517;-52
2022/01/05 06:41:59;;;;;;;0.20;0.20;;;;;;;3.89;96.89;99194.38;5033887;28;20509;-52
2022/01/05 06:44:25;;;;;;;0.20;0.10;;;;;;;4.07;97.81;99201.88;5034630;28;20451;-51
2022/01/05 06:46:52;;;;;;;0.20;0.20;;;;;;;4.26;97.11;99199.78;5034497;28;20452;-51
2022/01/05 06:49:21;;;;;;;0.20;0.20;;;;;;;4.08;96.85;99201.84;5034431;28;20476;-52
2022/01/05 06:51:48;;;;;;;0.20;0.20;;;;;;;4.04;97.86;99201.97;5034683;28;20459;-51
2022/01/05 06:54:14;;;;;;;0.20;0.10;;;;;;;3.99;97.19;99212.56;5029236;28;20493;-51
2022/01/05 06:56:41;;;;;;;0.20;0.10;;;;;;;3.99;97.76;99220.47;5034619;28;20456;-51
2022/01/05 06:59:08;;;;;;;0.20;0.20;;;;;;;4.05;96.73;99217.69;5034161;28;20533;-51
2022/01/05 07:01:34;;;;;;;0.20;0.10;;;;;;;3.91;96.07;99234.63;5034398;28;20456;-51
2022/01/05 07:04:02;;;;;;;0.20;0.10;;;;;;;4.00;95.41;99234.47;5034127;28;20451;-51
2022/01/05 07:06:29;;;;;;;0.20;0.20;;;;;;;3.86;95.27;99242.63;5034449;28;20447;-51
2022/01/05 07:08:55;;;;;;;0.20;0.20;;;;;;;3.78;95.05;99245.38;5033964;28;20526;-51
2022/01/05 07:11:22;;;;;;;0.20;0.10;;;;;;;3.53;95.19;99251.94;5022895;28;20884;-53
2022/01/05 07:13:48;;;;;;;0.20;0.20;;;;;;;3.53;95.53;99255.44;5028488;28;20495;-51
2022/01/05 07:16:15;;;;;;;0.20;0.10;;;;;;;3.58;94.51;99262.41;5030658;28;20448;-51
2022/01/05 07:18:42;;;;;;;0.20;0.20;;;;;;;3.59;94.67;99257.09;5028003;28;20472;-51
2022/01/05 07:21:08;;;;;;;0.20;0.10;;;;;;;3.56;95.83;99250.16;5034242;28;20444;-51
2022/01/05 07:23:35;;;;;;;0.20;0.10;;;;;;;3.47;95.94;99262.56;5033797;28;20486;-53
2022/01/05 07:26:02;;;;;;;0.20;0.10;;;;;;;3.32;96.28;99266.31;5021644;28;20495;-51
2022/01/05 07:28:28;;;;;;;0.20;0.10;;;;;;;3.22;96.32;99283.97;5033748;28;20471;-51
2022/01/05 07:30:55;;;;;;;0.20;0.20;;;;;;;3.30;97.53;99277.75;5033772;28;20498;-51
2022/01/05 07:33:21;;;;;;;0.20;0.10;;;;;;;3.37;95.98;99284.63;5033782;28;20494;-51
2022/01/05 07:35:48;;;;;;;0.20;0.20;;;;;;;3.33;96.62;99293.44;5033728;28;20964;-51
2022/01/05 07:38:15;;;;;;;0.20;0.13;;;;;;;3.20;96.62;99293.63;5033651;28;20472;-51
2022/01/05 07:40:41;;;;;;;0.20;0.10;;;;;;;3.26;96.55;99298.78;5033728;28;20451;-51
2022/01/05 07:43:08;;;;;;;0.20;0.13;;;;;;;3.35;96.25;99295.16;5033650;28;20457;-51
2022/01/05 07:45:35;;;;;;;0.20;0.10;;;;;;;3.18;96.37;99300.66;5033547;28;20456;-51
2022/01/05 07:48:03;;;;;;;0.20;0.17;;;;;;;3.23;96.37;99308.47;5033339;28;20448;-51
2022/01/05 07:50:30;;;;;;;0.20;0.10;;;;;;;3.12;97.67;99311.22;5033180;28;20447;-51
2022/01/05 07:53:00;;;;;;;0.20;0.10;;;;;;;3.28;97.26;99307.47;5032605;28;20533;-51
2022/01/05 07:55:30;;;;;;;0.20;0.10;;;;;;;3.34;96.38;99313.56;5026302;28;20794;-51
2022/01/05 07:57:59;;;;;;;0.20;0.20;;;;;;;3.50;96.46;99320.31;5032995;28;20817;-51
2022/01/05 08:00:26;;;;;;;0.20;0.20;;;;;;;3.38;96.49;99331.84;5033595;28;20444;-51
2022/01/05 08:02:53;;;;;;;0.20;0.13;;;;;;;3.28;96.53;99325.88;5019964;28;20521;-51
2022/01/05 08:05:20;;;;;;;0.20;0.20;;;;;;;3.20;96.89;99330.38;5033255;28;20860;-51
2022/01/05 08:07:46;;;;;;;0.20;0.10;;;;;;;3.46;95.83;99334.38;5033095;28;20452;-51
2022/01/05 08:10:13;;;;;;;0.20;0.10;;;;;;;3.50;96.17;99338.69;5031147;28;20448;-52
2022/01/05 08:12:41;;;;;;;0.20;0.10;;;;;;;3.45;96.12;99346.66;5017841;28;21030;-51
2022/01/05 08:15:11;;;;;;;0.20;0.20;;;;;;;3.47;96.18;99344.00;5033048;28;20460;-51
2022/01/05 08:17:42;;;;;;;1.90;1.90;;;;;;;3.47;95.51;99349.25;5023813;28;20451;-51
2022/01/05 08:20:11;;;;;;;0.20;0.10;;;;;;;3.48;95.14;99350.97;5033110;28;21000;-51
2022/01/05 08:22:42;;;;;;;0.20;0.10;;;;;;;3.69;94.49;99353.25;5033103;28;20859;-51
2022/01/05 08:25:17;;;;;;;0.20;0.10;;;;;;;3.83;93.22;99363.56;5021218;28;20445;-51
2022/01/05 08:27:47;;;;;;;0.20;0.10;;;;;;;3.83;95.05;99363.56;5008126;28;20945;-52
2022/01/05 08:30:20;;;;;;;0.20;0.10;;;;;;;3.92;94.11;99357.28;5027643;28;20457;-51
2022/01/05 08:32:47;;;;;;;0.20;0.20;;;;;;;3.80;92.37;99355.72;5030948;28;20869;-52
2022/01/05 08:35:17;;;;;;;0.20;0.10;;;;;;;3.92;92.93;99365.16;5031163;28;20965;-51
2022/01/05 08:37:44;;;;;;;0.20;0.20;;;;;;;3.93;92.59;99370.41;5032768;28;20444;-51
2022/01/05 08:40:16;;;;;;;0.20;0.10;;;;;;;4.05;92.50;99371.97;5032946;28;20448;-51
2022/01/05 08:42:44;;;;;;;0.20;0.10;;;;;;;3.96;92.33;99372.09;5032760;28;20440;-51
2022/01/05 08:45:11;;;;;;;0.20;0.20;;;;;;;4.03;91.63;99379.88;5024438;28;21032;-51
2022/01/05 08:47:37;;;;;;;0.20;0.17;;;;;;;4.18;92.19;99378.75;5016706;28;20451;-52
2022/01/05 08:50:05;;;;;;;0.20;0.10;;;;;;;4.10;91.16;99380.63;5000030;28;20522;-53
2022/01/05 08:52:31;;;;;;;0.20;0.13;;;;;;;4.27;91.56;99386.47;5025779;28;20444;-52
2022/01/05 08:54:58;;;;;;;0.20;0.10;;;;;;;4.53;90.16;99390.41;5024413;28;20464;-52
2022/01/05 08:57:25;;;;;;;0.20;0.20;;;;;;;4.36;90.78;99381.03;5026023;28;20510;-52
2022/01/05 08:59:51;;;;;;;0.20;0.10;;;;;;;4.12;90.57;99376.22;5030056;28;20479;-52
2022/01/05 09:02:18;;;;;;;0.20;0.10;;;;;;;4.49;90.47;99375.56;5025972;28;20850;-52
2022/01/05 09:04:48;;;;;;;0.20;0.20;;;;;;;4.09;90.67;99382.38;5030911;28;20459;-52
2022/01/05 09:07:15;;;;;;;0.20;0.10;;;;;;;4.32;90.35;99386.38;5027491;28;20448;-51
2022/01/05 09:09:41;;;;;;;0.20;0.20;;;;;;;4.22;91.05;99401.44;5032136;28;20468;-51
2022/01/05 09:12:09;;;;;;;0.20;0.10;;;;;;;4.53;90.48;99409.69;5013872;28;20953;-52
2022/01/05 09:14:36;;;;;;;0.20;0.10;;;;;;;4.49;90.21;99404.50;5032577;28;20541;-51
2022/01/05 09:17:04;;;;;;;0.20;0.17;;;;;;;4.55;89.68;99410.53;5018158;28;20448;-52
2022/01/05 09:19:31;;;;;;;0.20;0.10;;;;;;;4.51;89.61;99402.69;5022789;28;20504;-51
2022/01/05 09:21:57;;;;;;;0.20;0.20;;;;;;;4.74;88.93;99398.75;5029309;28;20448;-52
2022/01/05 09:24:44;;;;;;;0.20;0.10;;;;;;;4.69;88.25;99399.75;5032525;28;20855;-51
2022/01/05 09:27:11;;;;;;;0.20;0.10;;;;;;;4.87;88.41;99401.13;5033353;28;20478;-52
2022/01/05 09:29:40;;;;;;;0.20;0.20;;;;;;;4.76;87.58;99404.84;5034570;28;20499;-52
2022/01/05 09:32:09;;;;;;;0.20;0.20;;;;;;;4.86;88.13;99417.84;5030863;28;20849;-52
2022/01/05 09:34:37;;;;;;;0.20;0.10;;;;;;;4.67;89.13;99417.31;5032474;28;21016;-52
2022/01/05 09:37:11;;;;;;;0.20;0.10;;;;;;;4.63;89.70;99423.53;5031967;28;20455;-51
2022/01/05 09:42:23;;;;;;;0.20;0.20;;;;;;;4.73;88.62;99436.50;5032478;28;20451;-52
2022/01/05 09:44:52;;;;;;;0.20;0.10;;;;;;;5.11;88.11;99442.78;5032430;28;20448;-52
2022/01/05 09:47:41;;;;;;;0.20;0.20;;;;;;;5.21;88.29;99454.00;5024028;28;20453;-52
2022/01/05 09:50:10;;;;;;;0.20;0.10;;;;;;;5.33;88.84;99461.63;5031323;28;20493;-52
2022/01/05 09:52:40;;;;;;;0.20;0.10;;;;;;;5.29;86.38;99473.16;5032014;28;20514;-51
2022/01/05 09:55:09;;;;;;;0.20;0.17;;;;;;;5.42;86.28;99477.25;5006826;28;20948;-52
2022/01/05 09:57:39;;;;;;;0.20;0.10;;;;;;;5.36;88.02;99477.41;5014020;28;20826;-52
2022/01/05 10:00:11;;;;;;;0.20;0.10;;;;;;;5.09;89.04;99484.09;5014442;28;21002;-51
2022/01/05 10:02:42;;;;;;;0.20;0.20;;;;;;;5.04;89.98;99481.53;5032033;28;20505;-51
2022/01/05 10:05:10;;;;;;;0.30;0.20;;;;;;;5.07;88.13;99499.03;5031789;28;20451;-52
2022/01/05 10:07:38;;;;;;;0.20;0.10;;;;;;;5.04;88.38;99497.34;5015852;28;20509;-51
2022/01/05 10:10:05;;;;;;;0.20;0.20;;;;;;;4.88;88.96;99503.78;5023867;28;20467;-52
2022/01/05 10:12:32;;;;;;;0.20;0.13;;;;;;;4.98;88.46;99500.09;5015796;28;20890;-51
2022/01/05 10:14:59;;;;;;;0.30;0.20;;;;;;;5.11;88.87;99492.84;5020933;28;20492;-51
2022/01/05 10:17:30;;;;;;;0.20;0.10;;;;;;;5.14;88.66;99499.81;5021459;28;20443;-51
2022/01/05 10:20:06;;;;;;;0.20;0.13;;;;;;;5.31;88.92;99497.69;5035388;28;20467;-52
2022/01/05 10:22:41;;;;;;;0.20;0.10;;;;;;;5.23;89.08;99492.59;5029358;28;20443;-52
2022/01/05 10:25:17;;;;;;;0.23;0.20;;;;;;;5.22;88.44;99495.25;5034517;28;20443;-52
2022/01/05 10:27:58;;;;;;;0.30;0.27;;;;;;;5.30;88.03;99495.97;5033758;28;20489;-52
2022/01/05 10:30:34;;;;;;;0.20;0.10;;;;;;;5.27;87.87;99496.91;5034964;28;21048;-51
2022/01/05 10:33:01;;;;;;;0.20;0.20;;;;;;;5.37;87.28;99494.94;5035344;28;20454;-52
2022/01/05 10:35:27;;;;;;;0.20;0.10;;;;;;;5.39;88.34;99493.16;5035254;28;20460;-52
2022/01/05 10:37:58;;;;;;;0.20;0.10;;;;;;;5.21;86.39;99497.03;5034832;28;20443;-51
2022/01/05 10:40:25;;;;;;;2.20;1.60;;;;;;;5.23;86.47;99497.00;5021654;28;20443;-51
2022/01/05 10:42:55;;;;;;;0.20;0.17;;;;;;;5.57;87.36;99502.44;5034596;28;20451;-51
2022/01/05 10:45:47;;;;;;;0.20;0.10;;;;;;;5.28;85.95;99503.91;5033602;28;20444;-53
2022/01/05 10:48:16;;;;;;;0.20;0.20;;;;;;;5.45;86.54;99505.31;5021307;28;20839;-51
2022/01/05 10:50:46;;;;;;;0.20;0.10;;;;;;;5.42;85.05;99518.56;5034415;28;20444;-51
2022/01/05 10:53:20;;;;;;;0.20;0.10;;;;;;;5.61;83.47;99514.63;5034273;28;20452;-52
2022/01/05 10:55:47;;;;;;;0.20;0.10;;;;;;;5.48;84.05;99521.97;5034158;28;20482;-52
2022/01/05 10:58:16;;;;;;;0.20;0.20;;;;;;;5.34;84.91;99519.59;5034290;28;20549;-51
2022/01/05 11:00:47;;;;;;;0.20;0.10;;;;;;;5.43;84.28;99528.19;5034454;28;20472;-52
2022/01/05 11:03:28;;;;;;;0.20;0.20;;;;;;;5.57;85.15;99529.66;5034124;28;20447;-52
2022/01/05 11:06:02;;;;;;;0.20;0.10;;;;;;;5.56;86.00;99534.97;5035030;28;20487;-52
2022/01/05 11:08:45;;;;;;;0.20;0.10;;;;;;;5.35;85.67;99537.16;5033164;28;20468;-52
2022/01/05 11:11:36;;;;;;;0.20;0.17;;;;;;;5.24;84.70;99536.47;5026944;28;20936;-51
2022/01/05 11:14:11;;;;;;;0.20;0.20;;;;;;;5.43;85.98;99536.97;5031429;28;20566;-52
2022/01/05 11:16:41;;;;;;;0.20;0.10;;;;;;;5.34;85.09;99527.50;5027036;28;20948;-53
2022/01/05 11:19:22;;;;;;;0.20;0.10;;;;;;;5.32;85.34;99531.03;5033963;28;20455;-52
2022/01/05 11:22:05;;;;;;;0.20;0.20;;;;;;;5.57;85.88;99528.78;5033898;28;20475;-52
2022/01/05 11:24:38;;;;;;;0.20;0.20;;;;;;;5.30;84.54;99517.91;5033568;28;20475;-52
2022/01/05 11:27:08;;;;;;;0.20;0.20;;;;;;;5.43;84.08;99522.94;5033802;28;20443;-52
2022/01/05 11:29:36;;;;;;;0.20;0.10;;;;;;;5.41;84.41;99537.91;5028762;28;20877;-52
2022/01/05 11:32:06;;;;;;;0.20;0.10;;;;;;;5.19;84.28;99527.78;5033916;28;20479;-52
2022/01/05 11:34:33;;;;;;;0.20;0.20;;;;;;;5.34;85.20;99522.25;5033899;28;20498;-52
2022/01/05 11:37:04;;;;;;;0.20;0.10;;;;;;;5.32;85.86;99529.28;5033483;28;20448;-52
2022/01/05 11:39:33;;;;;;;0.20;0.20;;;;;;;5.52;85.03;99533.31;5033377;28;20526;-52
2022/01/05 11:42:07;;;;;;;0.80;0.80;;;;;;;5.58;85.17;99533.16;5015059;28;20456;-52
2022/01/05 11:44:45;;;;;;;0.20;0.10;;;;;;;5.96;83.60;99536.78;5019833;28;20455;-53
2022/01/05 11:47:27;;;;;;;0.20;0.20;;;;;;;5.85;83.27;99524.66;5024349;28;20452;-52
2022/01/05 11:50:13;;;;;;;0.20;0.20;;;;;;;5.90;83.48;99540.44;5012497;28;20471;-52